createdAt,value
2023-02-19T00:01:56.258Z,12.98
2023-02-19T00:04:24.578Z,11.82
2023-02-19T00:06:56.287Z,13.35
2023-02-19T00:09:24.630Z,15.40
2023-02-19T00:11:52.813Z,9.45
2023-02-19T00:14:22.699Z,13.77
2023-02-19T00:16:51.278Z,13.70
2023-02-19T00:19:21.455Z,9.27
2023-02-19T00:21:51.484Z,9.60
2023-02-19T00:24:23.844Z,9.82
2023-02-19T00:26:52.013Z,10.20
2023-02-19T00:29:22.678Z,13.02
2023-02-19T00:31:51.761Z,15.88
2023-02-19T00:34:20.433Z,10.45
2023-02-19T00:36:48.649Z,12.38
2023-02-19T00:39:21.394Z,11.52
2023-02-19T00:41:51.880Z,11.43
2023-02-19T00:44:20.175Z,11.02
2023-02-19T00:46:49.654Z,9.30
2023-02-19T00:49:21.259Z,8.43
2023-02-19T00:51:50.307Z,10.20
2023-02-19T00:54:18.984Z,10.50
2023-02-19T00:56:47.700Z,12.90
2023-02-19T00:59:17.859Z,14.10
2023-02-19T01:01:46.631Z,11.93
2023-02-19T01:04:17.455Z,13.60
2023-02-19T01:06:45.636Z,15.60
2023-02-19T01:09:14.002Z,13.13
2023-02-19T01:11:43.147Z,12.13
2023-02-19T01:14:11.636Z,12.50
2023-02-19T01:16:41.577Z,12.15
2023-02-19T01:19:09.916Z,15.27
2023-02-19T01:21:38.135Z,13.43
2023-02-19T01:24:06.792Z,14.25
2023-02-19T01:26:37.144Z,17.02
2023-02-19T01:29:05.856Z,13.57
2023-02-19T01:31:37.849Z,14.50
2023-02-19T01:34:07.654Z,17.05
2023-02-19T01:36:37.003Z,15.73
2023-02-19T01:39:07.313Z,18.77
2023-02-19T01:41:38.872Z,15.60
2023-02-19T01:44:08.915Z,16.55
2023-02-19T01:46:38.986Z,12.45
2023-02-19T01:49:11.715Z,16.88
2023-02-19T01:51:43.200Z,14.80
2023-02-19T01:54:14.381Z,12.88
2023-02-19T01:56:44.511Z,13.30
2023-02-19T01:59:13.713Z,11.32
2023-02-19T02:01:42.924Z,12.18
2023-02-19T02:04:14.919Z,11.70
2023-02-19T02:06:48.023Z,13.40
2023-02-19T02:09:34.853Z,13.43
2023-02-19T02:12:03.102Z,15.10
2023-02-19T02:14:37.489Z,13.75
2023-02-19T02:17:14.436Z,12.15
2023-02-19T02:20:03.381Z,15.90
2023-02-19T02:22:37.114Z,13.32
2023-02-19T02:25:43.885Z,17.30
2023-02-19T02:28:30.456Z,17.00
2023-02-19T02:31:05.421Z,17.10
2023-02-19T02:33:40.669Z,12.63
2023-02-19T02:36:13.966Z,14.90
2023-02-19T02:38:45.489Z,14.13
2023-02-19T02:41:16.197Z,18.27
2023-02-19T02:43:44.539Z,15.05
2023-02-19T02:46:20.046Z,16.70
2023-02-19T02:48:53.929Z,18.50
2023-02-19T02:51:26.897Z,21.00
2023-02-19T02:54:24.456Z,21.58
2023-02-19T02:56:53.722Z,18.40
2023-02-19T02:59:24.864Z,19.88
2023-02-19T03:02:11.537Z,17.40
2023-02-19T03:05:06.183Z,20.85
2023-02-19T03:07:40.114Z,22.90
2023-02-19T03:10:12.758Z,15.70
2023-02-19T03:13:00.492Z,15.60
2023-02-19T03:15:51.991Z,21.70
2023-02-19T03:18:42.195Z,21.05
2023-02-19T03:21:12.261Z,18.13
2023-02-19T03:24:00.308Z,20.45
2023-02-19T03:26:29.363Z,20.05
2023-02-19T03:29:16.219Z,18.60
2023-02-19T03:31:48.647Z,15.52
2023-02-19T03:34:25.764Z,23.13
2023-02-19T03:37:01.745Z,17.90
2023-02-19T03:39:30.776Z,23.60
2023-02-19T03:42:04.618Z,18.92
2023-02-19T03:44:42.857Z,24.17
2023-02-19T03:47:17.930Z,20.38
2023-02-19T03:49:50.919Z,20.83
2023-02-19T03:52:28.588Z,21.20
2023-02-19T03:55:01.009Z,15.85
2023-02-19T03:57:40.184Z,12.23
2023-02-19T04:00:12.793Z,17.55
2023-02-19T04:02:45.734Z,14.98
2023-02-19T04:05:19.776Z,19.35
2023-02-19T04:07:51.300Z,11.52
2023-02-19T04:10:24.955Z,12.75
2023-02-19T04:12:58.703Z,25.98
2023-02-19T04:15:30.522Z,17.58
2023-02-19T04:18:01.633Z,21.23
2023-02-19T04:20:37.315Z,23.45
2023-02-19T04:23:05.732Z,17.83
2023-02-19T04:25:35.523Z,20.88
2023-02-19T04:28:03.922Z,17.35
2023-02-19T04:30:32.215Z,24.15
2023-02-19T04:33:00.452Z,17.65
2023-02-19T04:35:30.069Z,21.85
2023-02-19T04:37:58.190Z,15.32
2023-02-19T04:40:26.403Z,14.57
2023-02-19T04:42:54.549Z,17.40
2023-02-19T04:45:22.843Z,18.10
2023-02-19T04:47:51.081Z,17.60
2023-02-19T04:50:19.494Z,18.23
2023-02-19T04:52:49.122Z,17.13
2023-02-19T04:55:17.428Z,12.02
2023-02-19T04:57:45.801Z,17.67
2023-02-19T05:00:14.773Z,14.15
2023-02-19T05:02:42.911Z,18.65
2023-02-19T05:05:11.175Z,15.57
2023-02-19T05:07:41.862Z,14.27
2023-02-19T05:10:11.475Z,16.27
2023-02-19T05:12:39.781Z,15.60
2023-02-19T05:15:11.314Z,25.58
2023-02-19T05:17:39.519Z,19.90
2023-02-19T05:20:08.769Z,18.77
2023-02-19T05:22:37.554Z,22.10
2023-02-19T05:25:08.621Z,15.80
2023-02-19T05:27:38.232Z,17.55
2023-02-19T05:30:07.173Z,21.35
2023-02-19T05:32:36.748Z,23.17
2023-02-19T05:35:05.430Z,21.75
2023-02-19T05:37:33.581Z,17.73
2023-02-19T05:40:01.669Z,17.98
2023-02-19T05:42:29.903Z,20.58
2023-02-19T05:44:59.469Z,17.98
2023-02-19T05:47:27.626Z,19.05
2023-02-19T05:49:57.415Z,21.60
2023-02-19T05:52:25.606Z,23.55
2023-02-19T05:54:53.716Z,31.85
2023-02-19T05:57:22.194Z,23.83
2023-02-19T05:59:50.423Z,23.02
2023-02-19T06:02:20.289Z,26.48
2023-02-19T06:04:48.702Z,24.73
2023-02-19T06:07:16.882Z,15.90
2023-02-19T06:09:45.256Z,29.40
2023-02-19T06:12:13.539Z,25.75
2023-02-19T06:14:41.727Z,19.70
2023-02-19T06:17:10.096Z,20.90
2023-02-19T06:19:40.018Z,19.40
2023-02-19T06:22:08.778Z,22.90
2023-02-19T06:24:37.679Z,23.73
2023-02-19T06:27:07.171Z,20.13
2023-02-19T06:29:38.253Z,33.85
2023-02-19T06:32:07.642Z,23.00
2023-02-19T06:34:39.700Z,17.63
2023-02-19T06:37:07.899Z,22.73
2023-02-19T06:39:36.178Z,18.48
2023-02-19T06:42:04.443Z,26.33
2023-02-19T06:44:32.543Z,21.73
2023-02-19T06:47:00.767Z,18.95
2023-02-19T06:49:29.187Z,28.48
2023-02-19T06:52:03.610Z,19.80
2023-02-19T06:54:33.373Z,22.83
2023-02-19T06:57:01.999Z,23.17
2023-02-19T06:59:30.188Z,23.67
2023-02-19T07:02:00.443Z,24.73
2023-02-19T07:04:28.729Z,22.00
2023-02-19T07:07:00.126Z,22.42
2023-02-19T07:09:28.580Z,21.90
2023-02-19T07:11:56.918Z,21.13
2023-02-19T07:14:25.165Z,24.75
2023-02-19T07:16:53.448Z,21.83
2023-02-19T07:19:21.797Z,17.48
2023-02-19T07:21:50.100Z,15.98
2023-02-19T07:24:21.616Z,20.00
2023-02-19T07:26:49.880Z,22.42
2023-02-19T07:29:18.808Z,20.45
2023-02-19T07:31:46.963Z,25.70
2023-02-19T07:34:15.102Z,25.40
2023-02-19T07:36:43.272Z,20.75
2023-02-19T07:39:14.502Z,19.05
2023-02-19T07:41:44.302Z,21.25
2023-02-19T07:44:23.102Z,13.75
2023-02-19T07:46:51.539Z,19.42
2023-02-19T07:49:19.760Z,16.05
2023-02-19T07:51:48.216Z,17.30
2023-02-19T07:54:16.644Z,20.15
2023-02-19T07:56:46.197Z,15.75
2023-02-19T07:59:15.770Z,19.65
2023-02-19T08:02:01.742Z,13.77
2023-02-19T08:04:30.092Z,13.85
2023-02-19T08:06:59.340Z,21.50
2023-02-19T08:09:27.612Z,13.30
2023-02-19T08:12:14.940Z,17.05
2023-02-19T08:14:43.242Z,9.18
2023-02-19T08:17:11.529Z,10.75
2023-02-19T08:19:39.952Z,15.80
2023-02-19T08:22:10.530Z,11.85
2023-02-19T08:24:42.985Z,13.90
2023-02-19T08:27:12.533Z,14.80
2023-02-19T08:29:40.832Z,11.85
2023-02-19T08:32:09.047Z,12.07
2023-02-19T08:34:37.727Z,19.85
2023-02-19T08:37:08.434Z,13.02
2023-02-19T08:39:36.691Z,10.68
2023-02-19T08:42:08.073Z,15.02
2023-02-19T08:44:37.857Z,11.48
2023-02-19T08:47:06.051Z,12.45
2023-02-19T08:49:34.450Z,12.57
2023-02-19T08:52:02.786Z,11.52
2023-02-19T08:54:31.457Z,14.35
2023-02-19T08:56:59.885Z,11.65
2023-02-19T08:59:30.442Z,14.43
2023-02-19T09:02:01.252Z,18.75
2023-02-19T09:04:29.580Z,20.17
2023-02-19T09:06:58.093Z,16.05
2023-02-19T09:09:27.002Z,7.97
2023-02-19T09:11:57.749Z,15.57
2023-02-19T09:14:26.100Z,15.40
2023-02-19T09:16:54.500Z,11.48
2023-02-19T09:19:24.358Z,10.52
2023-02-19T09:21:52.546Z,12.90
2023-02-19T09:24:21.281Z,12.30
2023-02-19T09:26:50.784Z,16.13
2023-02-19T09:29:19.422Z,13.80
2023-02-19T09:31:48.997Z,67.03
2023-02-19T09:34:17.356Z,10.52
2023-02-19T09:36:50.197Z,13.38
2023-02-19T09:41:49.192Z,48.35
2023-02-19T09:44:25.465Z,11.85
2023-02-19T09:46:56.455Z,10.90
2023-02-19T09:49:29.056Z,16.33
2023-02-19T09:52:05.130Z,9.52
2023-02-19T09:54:35.097Z,11.43
2023-02-19T09:57:04.791Z,17.02
2023-02-19T09:59:39.364Z,16.58
2023-02-19T10:02:15.081Z,17.08
2023-02-19T10:04:45.419Z,13.88
2023-02-19T10:07:16.954Z,11.48
2023-02-19T10:09:49.861Z,13.70
2023-02-19T10:12:23.592Z,17.85
2023-02-19T10:14:53.895Z,8.98
2023-02-19T10:17:26.251Z,9.45
2023-02-19T10:19:55.202Z,9.25
2023-02-19T10:22:25.820Z,13.32
2023-02-19T10:24:57.083Z,17.25
2023-02-19T10:27:28.024Z,10.13
2023-02-19T10:29:56.348Z,15.43
2023-02-19T10:32:27.270Z,11.55
2023-02-19T10:35:12.338Z,13.27
2023-02-19T10:37:46.972Z,12.88
2023-02-19T10:40:20.641Z,14.40
2023-02-19T10:42:49.884Z,12.82
2023-02-19T10:45:22.583Z,16.33
2023-02-19T10:47:51.842Z,10.07
2023-02-19T10:50:27.861Z,10.75
2023-02-19T10:52:59.075Z,12.27
2023-02-19T10:55:30.761Z,7.47
2023-02-19T10:58:25.269Z,12.00
2023-02-19T11:01:20.698Z,11.60
2023-02-19T11:03:50.145Z,13.05
2023-02-19T11:06:21.330Z,7.30
2023-02-19T11:08:56.779Z,12.70
2023-02-19T11:11:42.669Z,7.75
2023-02-19T11:14:17.711Z,8.35
2023-02-19T11:16:49.052Z,10.93
2023-02-19T11:19:37.766Z,13.32
2023-02-19T11:22:30.367Z,7.80
2023-02-19T11:25:04.842Z,6.37
2023-02-19T11:27:33.868Z,9.07
2023-02-19T11:30:36.976Z,10.40
2023-02-19T11:33:27.256Z,10.32
2023-02-19T11:36:17.819Z,12.27
2023-02-19T11:38:45.934Z,8.50
2023-02-19T11:41:23.428Z,8.30
2023-02-19T11:44:13.094Z,9.07
2023-02-19T11:46:51.484Z,16.50
2023-02-19T11:49:35.035Z,8.77
2023-02-19T11:52:20.387Z,9.65
2023-02-19T11:54:54.027Z,12.45
2023-02-19T11:57:37.254Z,13.70
2023-02-19T12:00:23.350Z,8.55
2023-02-19T12:03:31.908Z,7.68
2023-02-19T12:06:19.532Z,11.35
2023-02-19T12:09:26.219Z,6.90
2023-02-19T12:12:20.829Z,10.45
2023-02-19T12:15:13.324Z,12.02
2023-02-19T12:18:04.429Z,11.87
2023-02-19T12:20:41.321Z,6.78
2023-02-19T12:23:33.912Z,9.25
2023-02-19T12:26:08.248Z,3.93
2023-02-19T12:28:55.532Z,5.53
2023-02-19T12:31:53.695Z,12.55
2023-02-19T12:34:41.686Z,14.30
2023-02-19T12:37:25.568Z,6.30
2023-02-19T12:40:05.904Z,9.43
2023-02-19T12:42:51.034Z,5.43
2023-02-19T12:45:25.590Z,4.82
2023-02-19T12:48:01.475Z,7.60
2023-02-19T12:50:31.367Z,10.70
2023-02-19T12:53:03.674Z,7.72
2023-02-19T12:55:35.299Z,9.00
2023-02-19T12:58:06.786Z,7.00
2023-02-19T13:00:40.586Z,8.02
2023-02-19T13:03:20.928Z,6.93
2023-02-19T13:05:53.567Z,8.85
2023-02-19T13:08:27.604Z,11.35
2023-02-19T13:11:00.370Z,14.27
2023-02-19T13:13:33.058Z,9.75
2023-02-19T13:16:09.813Z,12.88
2023-02-19T13:18:44.117Z,6.13
2023-02-19T13:21:35.276Z,7.40
2023-02-19T13:24:07.586Z,13.05
2023-02-19T13:27:05.106Z,8.67
2023-02-19T13:29:52.919Z,8.35
2023-02-19T13:32:44.184Z,8.65
2023-02-19T13:35:26.600Z,6.88
2023-02-19T13:37:56.860Z,10.23
2023-02-19T13:40:33.312Z,10.43
2023-02-19T13:43:03.629Z,10.90
2023-02-19T13:45:36.436Z,8.25
2023-02-19T13:48:16.651Z,9.82
2023-02-19T13:50:46.374Z,6.07
2023-02-19T13:53:58.423Z,7.93
2023-02-19T13:56:40.631Z,8.35
2023-02-19T13:59:26.482Z,8.37
2023-02-19T14:02:14.564Z,7.70
2023-02-19T14:04:48.440Z,11.13
2023-02-19T14:07:48.516Z,6.57
2023-02-19T14:11:03.432Z,5.68
2023-02-19T14:13:58.005Z,9.25
2023-02-19T14:16:55.898Z,9.45
2023-02-19T14:19:53.423Z,7.28
2023-02-19T14:23:07.203Z,11.70
2023-02-19T14:25:44.782Z,10.77
2023-02-19T14:28:29.939Z,10.48
2023-02-19T14:31:01.038Z,12.82
2023-02-19T14:33:34.749Z,7.43
2023-02-19T14:36:06.988Z,6.88
2023-02-19T14:38:40.283Z,8.77
2023-02-19T14:41:13.705Z,9.73
2023-02-19T14:43:42.412Z,8.25
2023-02-19T14:46:20.406Z,8.18
2023-02-19T14:48:51.791Z,8.93
2023-02-19T14:51:32.184Z,7.13
2023-02-19T14:54:04.990Z,8.60
2023-02-19T14:59:09.137Z,10.48
2023-02-19T15:01:37.682Z,7.45
2023-02-19T15:04:06.477Z,7.40
2023-02-19T15:06:37.433Z,9.02
2023-02-19T15:09:07.718Z,9.40
2023-02-19T15:11:38.451Z,7.43
2023-02-19T15:14:09.576Z,5.60
2023-02-19T15:16:38.377Z,8.57
2023-02-19T15:19:09.305Z,7.68
2023-02-19T15:21:40.991Z,4.93
2023-02-19T15:24:09.335Z,9.63
2023-02-19T15:26:41.030Z,5.05
2023-02-19T15:29:12.567Z,4.28
2023-02-19T15:31:47.160Z,8.88
2023-02-19T15:34:20.624Z,10.73
2023-02-19T15:36:51.202Z,12.00
2023-02-19T15:39:23.696Z,8.32
2023-02-19T15:41:59.102Z,7.43
2023-02-19T15:44:46.557Z,8.80
2023-02-19T15:47:24.205Z,9.23
2023-02-19T15:49:58.360Z,7.10
2023-02-19T15:52:33.413Z,10.40
2023-02-19T15:55:09.208Z,8.10
2023-02-19T15:57:44.632Z,16.85
2023-02-19T16:00:18.312Z,33.55
2023-02-19T16:02:47.314Z,13.60
2023-02-19T16:05:17.923Z,13.85
2023-02-19T16:07:46.091Z,10.55
2023-02-19T16:10:21.766Z,15.05
2023-02-19T16:12:58.736Z,8.55
2023-02-19T16:15:27.514Z,11.65
2023-02-19T16:17:56.185Z,13.05
2023-02-19T16:20:27.244Z,14.05
2023-02-19T16:23:00.742Z,10.88
2023-02-19T16:25:33.884Z,14.85
2023-02-19T16:28:12.392Z,12.95
2023-02-19T16:30:43.201Z,11.70
2023-02-19T16:33:38.378Z,19.52
2023-02-19T16:36:26.277Z,11.55
2023-02-19T16:39:01.136Z,11.15
2023-02-19T16:41:29.180Z,8.77
2023-02-19T16:43:58.765Z,14.88
2023-02-19T16:46:27.055Z,13.52
2023-02-19T16:48:55.712Z,16.50
2023-02-19T16:51:27.219Z,10.05
2023-02-19T16:53:55.454Z,14.23
2023-02-19T16:56:25.298Z,10.13
2023-02-19T16:58:53.534Z,11.05
2023-02-19T17:01:23.255Z,15.52
2023-02-19T17:03:52.980Z,8.70
2023-02-19T17:06:21.100Z,18.73
2023-02-19T17:08:49.452Z,13.85
2023-02-19T17:11:19.016Z,14.13
2023-02-19T17:13:47.773Z,13.07
2023-02-19T17:16:20.253Z,12.77
2023-02-19T17:18:50.232Z,17.70
2023-02-19T17:21:22.343Z,14.10
2023-02-19T17:23:50.986Z,22.63
2023-02-19T17:26:20.833Z,23.92
2023-02-19T17:28:49.286Z,18.00
2023-02-19T17:31:18.715Z,16.17
2023-02-19T17:33:47.028Z,21.42
2023-02-19T17:36:20.807Z,23.25
2023-02-19T17:38:49.118Z,25.73
2023-02-19T17:41:17.461Z,24.25
2023-02-19T17:43:45.798Z,25.42
2023-02-19T17:46:16.673Z,34.22
2023-02-19T17:48:47.811Z,54.20
2023-02-19T17:51:16.081Z,73.18
2023-02-19T17:53:46.533Z,59.35
2023-02-19T17:56:19.245Z,46.45
2023-02-19T17:58:47.960Z,42.72
2023-02-19T18:01:16.600Z,40.55
2023-02-19T18:03:45.245Z,37.03
2023-02-19T18:06:13.631Z,39.33
2023-02-19T18:08:49.817Z,41.55
2023-02-19T18:11:18.571Z,53.03
2023-02-19T18:13:48.093Z,50.40
2023-02-19T18:16:17.158Z,50.15
2023-02-19T18:18:46.119Z,40.20
2023-02-19T18:21:14.857Z,34.13
2023-02-19T18:23:43.335Z,36.08
2023-02-19T18:26:13.806Z,34.20
2023-02-19T18:28:42.121Z,26.70
2023-02-19T18:31:10.837Z,22.92
2023-02-19T18:33:40.453Z,25.02
2023-02-19T18:36:11.750Z,21.17
2023-02-19T18:38:40.040Z,21.85
2023-02-19T18:41:14.926Z,20.20
2023-02-19T18:43:43.311Z,21.38
2023-02-19T18:46:12.633Z,17.75
2023-02-19T18:48:40.965Z,20.17
2023-02-19T18:51:11.298Z,21.08
2023-02-19T18:53:43.464Z,22.63
2023-02-19T18:56:13.069Z,26.95
2023-02-19T18:58:41.179Z,18.67
2023-02-19T19:01:10.297Z,27.42
2023-02-19T19:03:38.850Z,22.80
2023-02-19T19:06:07.301Z,18.27
2023-02-19T19:08:35.912Z,13.43
2023-02-19T19:11:04.332Z,14.48
2023-02-19T19:13:33.931Z,12.10
2023-02-19T19:16:04.618Z,19.37
2023-02-19T19:18:33.032Z,17.67
2023-02-19T19:21:03.517Z,14.63
2023-02-19T19:26:02.179Z,22.20
2023-02-19T19:28:33.438Z,15.13
2023-02-19T19:31:01.682Z,16.52
2023-02-19T19:33:30.501Z,17.67
2023-02-19T19:36:01.249Z,20.45
2023-02-19T19:38:29.290Z,18.77
2023-02-19T19:40:59.641Z,15.10
2023-02-19T19:43:28.529Z,16.17
2023-02-19T19:46:01.213Z,15.90
2023-02-19T19:48:29.469Z,22.00
2023-02-19T19:50:57.783Z,19.42
2023-02-19T19:53:26.009Z,13.68
2023-02-19T19:55:54.601Z,17.48
2023-02-19T19:58:24.742Z,20.63
2023-02-19T20:00:53.139Z,11.30
2023-02-19T20:03:23.131Z,16.70
2023-02-19T20:05:51.376Z,22.55
2023-02-19T20:08:19.476Z,13.50
2023-02-19T20:10:47.897Z,15.27
2023-02-19T20:13:18.045Z,10.20
2023-02-19T20:15:46.639Z,16.83
2023-02-19T20:18:14.864Z,14.07
2023-02-19T20:20:44.520Z,14.85
2023-02-19T20:23:12.692Z,18.05
2023-02-19T20:25:40.824Z,15.60
2023-02-19T20:28:09.105Z,14.70
2023-02-19T20:30:37.440Z,15.55
2023-02-19T20:33:05.626Z,14.25
2023-02-19T20:35:33.745Z,13.25
2023-02-19T20:38:03.242Z,17.90
2023-02-19T20:40:32.701Z,18.23
2023-02-19T20:43:02.950Z,15.38
2023-02-19T20:45:31.785Z,20.23
2023-02-19T20:47:59.944Z,17.52
2023-02-19T20:50:28.276Z,17.85
2023-02-19T20:52:58.686Z,18.75
2023-02-19T20:55:28.702Z,15.85
2023-02-19T20:57:56.925Z,15.27
2023-02-19T21:00:25.292Z,19.10
2023-02-19T21:02:53.542Z,16.85
2023-02-19T21:05:22.449Z,15.93
2023-02-19T21:07:51.173Z,16.45
2023-02-19T21:10:19.691Z,18.50
2023-02-19T21:12:50.596Z,20.08
2023-02-19T21:15:19.998Z,18.40
2023-02-19T21:17:48.268Z,16.85
2023-02-19T21:20:17.825Z,18.50
2023-02-19T21:22:46.034Z,19.40
2023-02-19T21:25:14.247Z,26.25
2023-02-19T21:27:42.484Z,29.45
2023-02-19T21:30:15.033Z,53.55
2023-02-19T21:32:45.427Z,25.02
2023-02-19T21:35:13.788Z,22.60
2023-02-19T21:37:44.042Z,14.55
2023-02-19T21:40:13.440Z,14.55
2023-02-19T21:42:41.776Z,15.45
2023-02-19T21:45:10.041Z,18.95
2023-02-19T21:47:43.853Z,19.50
2023-02-19T21:50:12.487Z,21.63
2023-02-19T21:52:40.638Z,14.40
2023-02-19T21:55:09.141Z,13.32
2023-02-19T21:57:37.386Z,12.30
2023-02-19T22:00:06.792Z,13.10
2023-02-19T22:02:37.205Z,13.93
2023-02-19T22:05:07.850Z,15.25
2023-02-19T22:07:35.916Z,11.48
2023-02-19T22:10:04.619Z,16.60
2023-02-19T22:12:32.830Z,17.05
2023-02-19T22:15:01.063Z,12.48
2023-02-19T22:17:32.428Z,16.75
2023-02-19T22:20:00.537Z,11.75
2023-02-19T22:22:30.080Z,15.10
2023-02-19T22:25:00.627Z,11.50
2023-02-19T22:27:29.776Z,9.93
2023-02-19T22:29:58.019Z,11.35
2023-02-19T22:32:26.213Z,16.15
2023-02-19T22:34:54.759Z,11.38
2023-02-19T22:37:22.861Z,15.52
2023-02-19T22:39:52.509Z,13.13
2023-02-19T22:42:20.769Z,15.20
2023-02-19T22:44:48.991Z,14.32
2023-02-19T22:47:19.853Z,12.60
2023-02-19T22:49:48.061Z,12.43
2023-02-19T22:52:16.287Z,8.30
2023-02-19T22:54:44.518Z,9.25
2023-02-19T22:57:14.366Z,14.32
2023-02-19T22:59:42.496Z,17.42
2023-02-19T23:02:10.679Z,18.92
2023-02-19T23:04:38.829Z,11.35
2023-02-19T23:07:07.535Z,12.63
2023-02-19T23:09:36.023Z,14.20
2023-02-19T23:12:06.974Z,15.52
2023-02-19T23:14:36.696Z,15.02
2023-02-19T23:17:05.101Z,15.95
2023-02-19T23:19:33.622Z,12.35
2023-02-19T23:22:02.210Z,11.45
2023-02-19T23:24:30.319Z,17.52
2023-02-19T23:26:59.589Z,13.50
2023-02-19T23:29:30.409Z,14.70
2023-02-19T23:32:00.762Z,12.52
2023-02-19T23:34:28.983Z,15.18
2023-02-19T23:36:59.660Z,13.70
2023-02-19T23:39:28.014Z,13.70
2023-02-19T23:41:58.056Z,15.27
2023-02-19T23:44:27.180Z,13.43
2023-02-19T23:46:55.506Z,15.70
2023-02-19T23:49:25.137Z,16.40
2023-02-19T23:51:53.408Z,15.15
2023-02-19T23:54:21.587Z,11.13
2023-02-19T23:56:49.866Z,13.63
2023-02-19T23:59:18.218Z,18.00
